Kareela Spirit — C6QJ9 — position and weather

sailwx.info

Track history (hours):
 
Tides and Currents Weather Stations Pressure Air Temp Water Temp Dewpoint Dewpoint Depression Visibility Wind Speed Wind Dir Waves Ship Positions

Kareela Spirit

Last reported at 2017-Sep-08 16:44 UTC. Time now 2017-Sep-23 02:24 UTC.
Position N 29°24' W 094°49'.
Warning: this ship's position is 14 days out of date.

Length 249 m; draft 8.8 m.

Type: Tanker. MMSI: 308731000.

Date/timePositionNaut miles runAvg speedWind from/ knotsBaromVisibWave heightAir tempDewpointWater temp
2017-Sep-08 16:44N 29°24' W 094°49'210.4
2017-Sep-08 16:30N 29°26' W 094°50'510.2
2017-Sep-08 16:00N 29°31' W 094°53'510.0
2017-Sep-08 15:30N 29°35' W 094°56'5 9.8
2017-Sep-08 15:00N 29°39' W 094°58'3 5.8
2017-Sep-08 14:30N 29°42' W 094°60'2 4.8
2017-Sep-08 14:00N 29°44' W 095°01'2 4.6
2017-Sep-08 13:30N 29°45' W 095°04'  
2017-Sep-06 07:26N 29°45' W 095°06'0 1.1
2017-Sep-06 07:01N 29°45' W 095°06'2 4.9
2017-Sep-06 06:30N 29°44' W 095°03'3 6.7
2017-Sep-06 06:00N 29°42' W 095°00'4 8.9
2017-Sep-06 05:31N 29°38' W 094°58'5 9.8
2017-Sep-06 05:01N 29°34' W 094°55'5 9.7
2017-Sep-06 04:31N 29°30' W 094°52'5 9.2
2017-Sep-06 03:59N 29°25' W 094°50'5 8.3
2017-Sep-06 03:22N 29°21' W 094°47'  
2017-Sep-01 09:19N 29°16' W 094°26'0 0.0
2017-Sep-01 06:28N 29°17' W 094°26'0 0.0
2017-Sep-01 05:58N 29°17' W 094°26'0 0.0
2017-Sep-01 05:25N 29°16' W 094°26'0 0.0
2017-Sep-01 04:58N 29°16' W 094°26'0 0.0
2017-Sep-01 04:28N 29°16' W 094°26'0 0.0
2017-Sep-01 03:58N 29°16' W 094°26'0 0.0
2017-Sep-01 03:28N 29°16' W 094°26'0 0.0
2017-Sep-01 02:58N 29°16' W 094°26'  
Track history (hours):
 
Tides and Currents Weather Stations Pressure Air Temp Water Temp Dewpoint Dewpoint Depression Visibility Wind Speed Wind Dir Waves Ship Positions

Kareela Spirit

Last reported at 2017-Sep-08 16:44 UTC. Time now 2017-Sep-23 02:24 UTC.
Position N 29°24' W 094°49'.
Warning: this ship's position is 14 days out of date.

Length 249 m; draft 8.8 m.

Type: Tanker. MMSI: 308731000.

Date/timePositionNaut miles runAvg speedWind from/ knotsBaromVisibWave heightAir tempDewpointWater temp
2017-Sep-08 16:44N 29°24' W 094°49'210.4
2017-Sep-08 16:30N 29°26' W 094°50'510.2
2017-Sep-08 16:00N 29°31' W 094°53'510.0
2017-Sep-08 15:30N 29°35' W 094°56'5 9.8
2017-Sep-08 15:00N 29°39' W 094°58'3 5.8
2017-Sep-08 14:30N 29°42' W 094°60'2 4.8
2017-Sep-08 14:00N 29°44' W 095°01'2 4.6
2017-Sep-08 13:30N 29°45' W 095°04'  
2017-Sep-06 07:26N 29°45' W 095°06'0 1.1
2017-Sep-06 07:01N 29°45' W 095°06'2 4.9
2017-Sep-06 06:30N 29°44' W 095°03'3 6.7
2017-Sep-06 06:00N 29°42' W 095°00'4 8.9
2017-Sep-06 05:31N 29°38' W 094°58'5 9.8
2017-Sep-06 05:01N 29°34' W 094°55'5 9.7
2017-Sep-06 04:31N 29°30' W 094°52'5 9.2
2017-Sep-06 03:59N 29°25' W 094°50'5 8.3
2017-Sep-06 03:22N 29°21' W 094°47'  
2017-Sep-01 09:19N 29°16' W 094°26'0 0.0
2017-Sep-01 06:28N 29°17' W 094°26'0 0.0
2017-Sep-01 05:58N 29°17' W 094°26'0 0.0
2017-Sep-01 05:25N 29°16' W 094°26'0 0.0
2017-Sep-01 04:58N 29°16' W 094°26'0 0.0
2017-Sep-01 04:28N 29°16' W 094°26'0 0.0
2017-Sep-01 03:58N 29°16' W 094°26'0 0.0
2017-Sep-01 03:28N 29°16' W 094°26'0 0.0
2017-Sep-01 02:58N 29°16' W 094°26'  

Dump ship's entire track history